createdAt,value
2022-08-15T00:05:05.082Z,8.13
2022-08-15T00:11:01.119Z,8.10
2022-08-15T00:15:43.725Z,8.17
2022-08-15T00:20:49.969Z,8.13
2022-08-15T00:25:59.458Z,8.70
2022-08-15T00:31:40.860Z,9.00
2022-08-15T00:36:52.917Z,9.17
2022-08-15T00:41:58.168Z,8.83
2022-08-15T00:47:04.690Z,9.27
2022-08-15T00:52:27.400Z,9.20
2022-08-15T00:58:00.281Z,8.80
2022-08-15T01:03:00.355Z,9.20
2022-08-15T01:08:05.454Z,9.13
2022-08-15T01:13:18.795Z,9.27
2022-08-15T01:18:35.369Z,10.00
2022-08-15T01:23:54.575Z,9.38
2022-08-15T01:28:59.005Z,8.40
2022-08-15T01:34:04.100Z,8.88
2022-08-15T01:39:22.035Z,9.30
2022-08-15T01:44:36.783Z,9.95
2022-08-15T01:49:59.163Z,9.35
2022-08-15T01:55:08.466Z,9.55
2022-08-15T02:00:18.024Z,10.07
2022-08-15T02:05:26.596Z,9.57
2022-08-15T02:10:36.046Z,9.75
2022-08-15T02:15:43.831Z,9.65
2022-08-15T02:20:51.043Z,9.35
2022-08-15T02:25:55.445Z,8.80
2022-08-15T02:30:58.565Z,9.70
2022-08-15T02:36:06.735Z,9.93
2022-08-15T02:41:23.049Z,9.68
2022-08-15T02:46:31.991Z,9.60
2022-08-15T02:51:46.528Z,10.07
2022-08-15T02:57:02.070Z,10.15
2022-08-15T03:02:05.849Z,10.43
2022-08-15T03:07:28.909Z,9.80
2022-08-15T03:12:36.104Z,10.23
2022-08-15T03:17:43.808Z,10.80
2022-08-15T03:22:50.056Z,10.18
2022-08-15T03:28:03.633Z,10.27
2022-08-15T03:33:08.448Z,12.15
2022-08-15T03:38:11.894Z,10.73
2022-08-15T03:43:22.606Z,10.80
2022-08-15T03:48:28.056Z,10.30
2022-08-15T03:53:45.842Z,12.13
2022-08-15T03:58:53.445Z,11.45
2022-08-15T04:09:12.632Z,11.80
2022-08-15T04:14:31.552Z,14.48
2022-08-15T04:29:58.380Z,14.48
2022-08-15T04:41:17.655Z,12.70
2022-08-15T04:45:39.064Z,14.38
2022-08-15T05:01:04.300Z,14.13
2022-08-15T05:06:29.414Z,16.47
2022-08-15T05:12:00.609Z,15.37
2022-08-15T05:17:07.382Z,15.57
2022-08-15T05:22:13.668Z,13.73
2022-08-15T05:27:21.781Z,13.03
2022-08-15T05:32:25.011Z,14.50
2022-08-15T05:37:41.344Z,13.67
2022-08-15T05:42:53.889Z,12.73
2022-08-15T05:48:20.283Z,12.63
2022-08-15T05:53:33.048Z,16.63
2022-08-15T05:58:51.656Z,13.57
2022-08-15T06:04:08.144Z,12.10
2022-08-15T06:09:18.228Z,12.57
2022-08-15T06:14:34.727Z,13.07
2022-08-15T06:19:47.185Z,13.63
2022-08-15T06:24:53.364Z,12.55
2022-08-15T06:30:15.328Z,13.68
2022-08-15T06:35:36.433Z,13.90
2022-08-15T06:40:58.015Z,12.10
2022-08-15T06:46:47.023Z,12.82
2022-08-15T06:51:45.316Z,13.93
2022-08-15T06:56:52.112Z,12.93
2022-08-15T07:02:15.589Z,13.18
2022-08-15T07:07:39.609Z,13.02
2022-08-15T07:13:03.856Z,12.18
2022-08-15T07:18:21.196Z,13.23
2022-08-15T07:23:36.979Z,12.52
2022-08-15T07:28:48.001Z,13.55
2022-08-15T07:33:56.358Z,13.27
2022-08-15T07:39:34.185Z,13.02
2022-08-15T07:44:50.269Z,14.15
2022-08-15T07:49:59.454Z,13.50
2022-08-15T08:00:45.914Z,13.75
2022-08-15T08:06:33.863Z,13.75
2022-08-15T08:11:30.053Z,12.40
2022-08-15T08:16:44.023Z,13.48
2022-08-15T08:21:55.460Z,13.57
2022-08-15T08:27:02.883Z,12.80
2022-08-15T08:32:29.852Z,12.13
2022-08-15T08:37:54.481Z,12.35
2022-08-15T08:43:10.778Z,12.07
2022-08-15T08:48:20.954Z,12.50
2022-08-15T08:53:56.492Z,12.82
2022-08-15T08:59:10.624Z,13.27
2022-08-15T09:04:18.663Z,13.48
2022-08-15T09:09:30.785Z,13.27
2022-08-15T09:14:56.766Z,13.73
2022-08-15T09:20:12.209Z,13.95
2022-08-15T09:25:30.541Z,12.50
2022-08-15T09:30:48.691Z,13.18
2022-08-15T09:36:05.151Z,12.60
2022-08-15T09:41:25.333Z,13.23
2022-08-15T09:46:42.876Z,12.93
2022-08-15T09:51:59.018Z,12.95
2022-08-15T09:57:41.090Z,13.48
2022-08-15T10:02:46.622Z,13.38
2022-08-15T10:07:53.412Z,12.75
2022-08-15T10:13:08.857Z,12.30
2022-08-15T10:18:24.116Z,13.32
2022-08-15T10:23:38.237Z,13.07
2022-08-15T10:28:57.547Z,12.93
2022-08-15T10:34:04.247Z,12.35
2022-08-15T10:39:19.601Z,13.43
2022-08-15T10:44:36.361Z,13.23
2022-08-15T10:49:44.303Z,13.20
2022-08-15T10:55:03.651Z,12.95
2022-08-15T11:00:35.438Z,13.63
2022-08-15T11:05:30.941Z,18.02
2022-08-15T11:10:34.285Z,16.60
2022-08-15T11:15:57.063Z,14.85
2022-08-15T11:21:22.707Z,14.98
2022-08-15T11:26:33.546Z,15.70
2022-08-15T11:31:56.053Z,14.75
2022-08-15T11:37:04.474Z,14.60
2022-08-15T11:42:11.815Z,14.52
2022-08-15T11:47:20.056Z,14.73
2022-08-15T11:52:41.202Z,14.57
2022-08-15T11:57:54.529Z,14.07
2022-08-15T12:04:39.734Z,14.45
2022-08-15T12:08:46.718Z,14.02
2022-08-15T12:13:55.172Z,14.02
2022-08-15T12:19:06.181Z,13.68
2022-08-15T12:24:11.443Z,14.48
2022-08-15T12:29:13.758Z,14.48
2022-08-15T12:34:29.543Z,13.88
2022-08-15T12:39:41.027Z,14.20
2022-08-15T12:44:48.694Z,13.77
2022-08-15T12:49:51.287Z,12.75
2022-08-15T12:55:01.767Z,13.15
2022-08-15T13:00:35.259Z,13.85
2022-08-15T13:06:01.270Z,13.05
2022-08-15T13:11:08.800Z,12.90
2022-08-15T13:17:07.141Z,13.52
2022-08-15T13:21:58.316Z,12.43
2022-08-15T13:27:08.440Z,12.55
2022-08-15T13:32:13.576Z,13.23
2022-08-15T13:37:18.452Z,13.23
2022-08-15T13:42:45.916Z,13.98
2022-08-15T13:47:54.015Z,13.15
2022-08-15T13:52:58.986Z,14.70
2022-08-15T13:58:05.779Z,14.45
2022-08-15T14:03:23.848Z,13.77
2022-08-15T14:08:28.284Z,13.98
2022-08-15T14:13:35.519Z,13.70
2022-08-15T14:18:51.232Z,14.38
2022-08-15T14:23:59.506Z,15.43
2022-08-15T14:29:18.069Z,15.45
2022-08-15T14:34:57.563Z,15.48
2022-08-15T14:40:02.313Z,16.08
2022-08-15T14:45:16.852Z,16.88
2022-08-15T14:50:54.176Z,15.20
2022-08-15T14:55:50.962Z,16.38
2022-08-15T15:00:57.664Z,16.08
2022-08-15T15:06:24.517Z,15.88
2022-08-15T15:11:30.896Z,17.05
2022-08-15T15:16:40.787Z,17.95
2022-08-15T15:21:46.649Z,24.52
2022-08-15T15:26:55.358Z,14.68
2022-08-15T15:32:01.613Z,14.50
2022-08-15T15:37:09.164Z,13.43
2022-08-15T15:42:17.482Z,14.90
2022-08-15T15:47:25.403Z,14.40
2022-08-15T15:52:32.938Z,15.10
2022-08-15T15:58:00.914Z,16.38
2022-08-15T16:03:04.822Z,15.50
2022-08-15T16:08:29.359Z,16.13
2022-08-15T16:13:48.392Z,17.70
2022-08-15T16:19:00.717Z,16.67
2022-08-15T16:24:09.413Z,12.83
2022-08-15T16:29:13.920Z,10.67
2022-08-15T16:34:28.347Z,10.93
2022-08-15T16:39:41.047Z,11.03
2022-08-15T16:44:57.223Z,11.87
2022-08-15T16:50:18.087Z,13.93
2022-08-15T16:55:29.763Z,15.00
2022-08-15T17:00:44.695Z,10.40
2022-08-15T17:06:00.535Z,7.53
2022-08-15T17:11:09.817Z,8.57
2022-08-15T17:16:35.658Z,6.00
2022-08-15T17:21:43.766Z,5.83
2022-08-15T17:26:49.671Z,5.60
2022-08-15T17:32:07.667Z,5.40
2022-08-15T17:37:22.190Z,5.57
2022-08-15T17:42:34.316Z,5.50
2022-08-15T17:47:39.674Z,5.50
2022-08-15T17:52:57.178Z,5.47
2022-08-15T17:58:11.314Z,5.60
2022-08-15T18:03:15.062Z,6.40
2022-08-15T18:08:32.552Z,6.63
2022-08-15T18:13:39.533Z,6.97
2022-08-15T18:18:57.682Z,6.03
2022-08-15T18:24:38.597Z,7.00
2022-08-15T18:29:29.337Z,7.33
2022-08-15T18:34:53.633Z,7.40
2022-08-15T18:40:14.751Z,7.57
2022-08-15T18:45:37.144Z,7.53
2022-08-15T18:50:46.509Z,7.87
2022-08-15T18:56:26.103Z,7.40
2022-08-15T19:01:32.825Z,7.67
2022-08-15T19:06:50.517Z,8.37
2022-08-15T19:11:59.521Z,8.93
2022-08-15T19:17:19.693Z,8.60
2022-08-15T19:22:29.527Z,8.03
2022-08-15T19:27:41.832Z,9.17
2022-08-15T19:32:51.280Z,8.43
2022-08-15T19:38:16.980Z,8.77
2022-08-15T19:43:40.419Z,9.00
2022-08-15T19:49:03.243Z,9.70
2022-08-15T19:55:19.368Z,8.57
2022-08-15T20:00:17.384Z,10.27
2022-08-15T20:06:05.871Z,10.73
2022-08-15T20:10:56.987Z,9.80
2022-08-15T20:16:08.170Z,9.00
2022-08-15T20:21:21.987Z,9.30
2022-08-15T20:26:56.522Z,10.07
2022-08-15T20:32:22.567Z,10.93
2022-08-15T20:37:37.423Z,10.83
2022-08-15T20:42:57.599Z,10.73
2022-08-15T20:48:41.314Z,10.63
2022-08-15T20:53:37.476Z,11.03
2022-08-15T20:58:56.915Z,11.37
2022-08-15T21:04:32.784Z,10.97
2022-08-15T21:09:53.560Z,11.70
2022-08-15T21:15:10.168Z,12.17
2022-08-15T21:20:30.721Z,11.97
2022-08-15T21:25:54.045Z,11.83
2022-08-15T21:31:02.311Z,11.93
2022-08-15T21:36:34.851Z,11.30
2022-08-15T21:41:38.688Z,12.63
2022-08-15T21:46:58.581Z,12.60
2022-08-15T21:52:18.040Z,12.70
2022-08-15T21:57:37.738Z,12.03
2022-08-15T22:02:58.328Z,13.27
2022-08-15T22:08:16.338Z,12.83
2022-08-15T22:13:19.835Z,13.30
2022-08-15T22:18:28.665Z,12.93
2022-08-15T22:24:07.780Z,12.77
2022-08-15T22:29:24.435Z,13.07
2022-08-15T22:34:35.079Z,12.60
2022-08-15T22:39:43.662Z,13.67
2022-08-15T22:44:51.133Z,13.70
2022-08-15T22:49:56.212Z,13.67
2022-08-15T22:55:00.040Z,13.10
2022-08-15T23:00:06.065Z,13.60
2022-08-15T23:05:27.806Z,14.33
2022-08-15T23:10:45.414Z,13.60
2022-08-15T23:16:00.169Z,13.93
2022-08-15T23:21:04.947Z,13.93
2022-08-15T23:26:31.737Z,12.90
2022-08-15T23:31:37.749Z,13.00
2022-08-15T23:37:01.892Z,13.90
2022-08-15T23:42:27.726Z,13.00
2022-08-15T23:47:31.095Z,13.80
2022-08-15T23:53:00.039Z,14.27
2022-08-15T23:58:13.760Z,14.00
